createdAt,value
2022-10-13T00:01:09.663Z,42.4
2022-10-13T00:02:25.948Z,42.4
2022-10-13T00:03:42.258Z,42.4
2022-10-13T00:04:58.547Z,42.5
2022-10-13T00:06:14.833Z,42.5
2022-10-13T00:07:31.128Z,42.5
2022-10-13T00:08:47.426Z,42.5
2022-10-13T00:10:03.720Z,42.4
2022-10-13T00:11:19.997Z,42.5
2022-10-13T00:12:36.287Z,42.5
2022-10-13T00:13:52.596Z,42.5
2022-10-13T00:15:07.894Z,42.5
2022-10-13T00:16:24.197Z,42.5
2022-10-13T00:17:40.483Z,42.5
2022-10-13T00:18:56.772Z,42.5
2022-10-13T00:20:13.072Z,42.5
2022-10-13T00:21:29.381Z,42.5
2022-10-13T00:22:45.648Z,42.5
2022-10-13T00:24:01.943Z,42.5
2022-10-13T00:25:18.231Z,42.5
2022-10-13T00:26:34.546Z,42.5
2022-10-13T00:27:50.829Z,42.5
2022-10-13T00:29:07.139Z,42.5
2022-10-13T00:30:23.416Z,42.5
2022-10-13T00:31:38.729Z,42.5
2022-10-13T00:32:55.010Z,42.5
2022-10-13T00:34:11.299Z,42.5
2022-10-13T00:35:27.591Z,42.5
2022-10-13T00:36:43.881Z,42.5
2022-10-13T00:38:00.174Z,42.5
2022-10-13T00:39:16.486Z,42.5
2022-10-13T00:40:32.773Z,42.6
2022-10-13T00:41:49.071Z,42.5
2022-10-13T00:43:05.347Z,42.5
2022-10-13T00:44:21.673Z,42.5
2022-10-13T00:45:37.934Z,42.6
2022-10-13T00:46:54.243Z,42.6
2022-10-13T00:48:09.548Z,42.6
2022-10-13T00:49:25.848Z,42.6
2022-10-13T00:50:42.144Z,42.6
2022-10-13T00:51:58.418Z,42.6
2022-10-13T00:53:14.709Z,42.6
2022-10-13T00:54:31.016Z,42.6
2022-10-13T00:55:47.317Z,42.6
2022-10-13T00:57:03.612Z,42.6
2022-10-13T00:58:19.885Z,42.6
2022-10-13T00:59:36.171Z,42.6
2022-10-13T01:00:52.466Z,42.6
2022-10-13T01:02:08.764Z,42.6
2022-10-13T01:03:25.057Z,42.6
2022-10-13T01:04:40.381Z,42.6
2022-10-13T01:05:56.677Z,42.6
2022-10-13T01:07:12.947Z,42.6
2022-10-13T01:08:29.270Z,42.6
2022-10-13T01:09:45.555Z,42.6
2022-10-13T01:11:01.854Z,42.6
2022-10-13T01:12:18.152Z,42.6
2022-10-13T01:13:34.429Z,42.6
2022-10-13T01:14:50.720Z,42.6
2022-10-13T01:16:06.999Z,42.6
2022-10-13T01:17:23.307Z,42.6
2022-10-13T01:18:39.602Z,42.6
2022-10-13T01:19:55.888Z,42.6
2022-10-13T01:21:11.210Z,42.7
2022-10-13T01:22:27.500Z,42.7
2022-10-13T01:23:43.775Z,42.7
2022-10-13T01:25:00.088Z,42.7
2022-10-13T01:26:16.355Z,42.7
2022-10-13T01:27:32.653Z,42.7
2022-10-13T01:28:48.942Z,42.7
2022-10-13T01:30:05.238Z,42.7
2022-10-13T01:31:21.530Z,42.7
2022-10-13T01:32:37.826Z,42.7
2022-10-13T01:33:54.126Z,42.7
2022-10-13T01:35:10.432Z,42.7
2022-10-13T01:36:26.713Z,42.7
2022-10-13T01:37:42.007Z,42.7
2022-10-13T01:38:58.317Z,42.7
2022-10-13T01:40:14.590Z,42.7
2022-10-13T01:41:30.889Z,42.7
2022-10-13T01:42:47.189Z,42.7
2022-10-13T01:44:03.477Z,42.7
2022-10-13T01:45:19.774Z,42.7
2022-10-13T01:46:36.057Z,42.7
2022-10-13T01:47:52.351Z,42.7
2022-10-13T01:49:08.653Z,42.7
2022-10-13T01:50:24.945Z,42.7
2022-10-13T01:51:41.256Z,42.7
2022-10-13T01:52:57.536Z,42.7
2022-10-13T01:54:12.829Z,42.7
2022-10-13T01:55:29.143Z,42.8
2022-10-13T01:56:45.425Z,42.7
2022-10-13T01:58:01.721Z,42.8
2022-10-13T01:59:18.000Z,42.7
2022-10-13T02:00:34.309Z,42.7
2022-10-13T02:01:50.595Z,42.8
2022-10-13T02:03:06.881Z,42.8
2022-10-13T02:04:23.201Z,42.8
2022-10-13T02:05:39.483Z,42.7
2022-10-13T02:06:55.761Z,42.8
2022-10-13T02:08:12.055Z,42.7
2022-10-13T02:09:28.361Z,42.7
2022-10-13T02:10:43.683Z,42.8
2022-10-13T02:11:59.947Z,42.8
2022-10-13T02:13:16.257Z,42.8
2022-10-13T02:14:32.528Z,42.8
2022-10-13T02:15:48.826Z,42.8
2022-10-13T02:17:05.138Z,42.8
2022-10-13T02:18:21.406Z,42.8
2022-10-13T02:19:37.708Z,42.8
2022-10-13T02:20:54.005Z,42.8
2022-10-13T02:22:10.302Z,42.8
2022-10-13T02:23:26.578Z,42.8
2022-10-13T02:24:42.873Z,42.8
2022-10-13T02:25:59.188Z,42.8
2022-10-13T02:27:14.493Z,42.8
2022-10-13T02:28:30.777Z,42.8
2022-10-13T02:29:47.068Z,42.8
2022-10-13T02:31:03.367Z,42.8
2022-10-13T02:32:19.647Z,42.8
2022-10-13T03:02:50.676Z,42.9
2022-10-13T03:04:06.013Z,42.9
2022-10-13T03:05:21.305Z,42.9
2022-10-13T03:06:36.615Z,42.9
2022-10-13T03:07:51.936Z,42.9
2022-10-13T03:09:07.250Z,42.9
2022-10-13T03:10:22.561Z,42.9
2022-10-13T03:11:37.877Z,42.9
2022-10-13T03:12:53.190Z,42.9
2022-10-13T03:14:09.489Z,42.9
2022-10-13T03:15:25.789Z,42.9
2022-10-13T03:16:42.067Z,42.9
2022-10-13T03:17:58.348Z,42.9
2022-10-13T03:19:14.664Z,42.9
2022-10-13T03:20:30.934Z,42.9
2022-10-13T03:21:47.262Z,42.9
2022-10-13T03:23:03.515Z,42.9
2022-10-13T03:24:19.826Z,42.9
2022-10-13T03:25:35.137Z,42.9
2022-10-13T03:26:50.437Z,42.9
2022-10-13T03:28:05.753Z,42.9
2022-10-13T03:29:21.091Z,43
2022-10-13T03:30:37.353Z,42.9
2022-10-13T03:31:53.652Z,42.9
2022-10-13T03:33:09.940Z,42.9
2022-10-13T03:34:26.248Z,42.9
2022-10-13T03:35:42.535Z,43
2022-10-13T03:36:58.830Z,42.9
2022-10-13T03:38:15.110Z,43
2022-10-13T03:39:31.413Z,43
2022-10-13T03:40:47.718Z,42.9
2022-10-13T03:42:03.017Z,43
2022-10-13T03:43:18.324Z,42.9
2022-10-13T03:44:34.618Z,43
2022-10-13T03:45:50.923Z,43
2022-10-13T03:47:07.202Z,43
2022-10-13T03:48:23.496Z,43
2022-10-13T03:49:39.788Z,43
2022-10-13T03:50:56.074Z,43
2022-10-13T03:52:12.379Z,43
2022-10-13T03:53:28.661Z,43
2022-10-13T03:54:44.965Z,43
2022-10-13T03:56:01.258Z,43
2022-10-13T03:57:17.537Z,43
2022-10-13T03:58:33.844Z,43
2022-10-13T03:59:49.149Z,43
2022-10-13T04:01:05.455Z,43
2022-10-13T04:02:21.748Z,43
2022-10-13T04:03:38.033Z,43
2022-10-13T04:04:54.334Z,43
2022-10-13T04:06:10.619Z,43
2022-10-13T04:07:26.907Z,43
2022-10-13T04:08:42.228Z,43
2022-10-13T04:09:57.538Z,43
2022-10-13T04:11:13.834Z,43
2022-10-13T04:12:29.153Z,43
2022-10-13T04:13:44.455Z,43
2022-10-13T04:15:00.743Z,43
2022-10-13T04:16:17.051Z,43.1
2022-10-13T04:17:33.320Z,43
2022-10-13T04:18:49.610Z,43.1
2022-10-13T04:20:05.921Z,43
2022-10-13T04:21:22.194Z,43.1
2022-10-13T04:22:38.495Z,43.1
2022-10-13T04:23:54.794Z,43
2022-10-13T04:25:11.088Z,43.1
2022-10-13T04:26:27.382Z,43.1
2022-10-13T04:27:43.663Z,43.1
2022-10-13T04:28:59.973Z,43.1
2022-10-13T04:30:15.283Z,43.1
2022-10-13T04:31:31.555Z,43.1
2022-10-13T04:32:47.848Z,43.1
2022-10-13T04:34:04.152Z,43.1
2022-10-13T04:35:20.444Z,43.1
2022-10-13T04:36:36.726Z,43.1
2022-10-13T04:37:53.019Z,43.1
2022-10-13T04:39:08.340Z,43.1
2022-10-13T04:40:23.660Z,43.1
2022-10-13T04:41:39.951Z,43.1
2022-10-13T04:42:55.258Z,43.1
2022-10-13T04:44:10.572Z,43.1
2022-10-13T04:45:26.855Z,43.1
2022-10-13T04:46:43.150Z,43.1
2022-10-13T04:47:59.442Z,43.1
2022-10-13T04:49:15.742Z,43.1
2022-10-13T04:50:32.027Z,43.1
2022-10-13T04:51:48.332Z,43.1
2022-10-13T04:53:04.614Z,43.1
2022-10-13T04:54:20.911Z,43.1
2022-10-13T04:55:37.204Z,43.1
2022-10-13T04:56:53.502Z,43.2
2022-10-13T04:58:09.792Z,43.1
2022-10-13T04:59:26.075Z,43.2
2022-10-13T05:00:41.396Z,43.2
2022-10-13T05:01:57.684Z,43.2
2022-10-13T05:03:13.982Z,43.2
2022-10-13T05:04:30.279Z,43.2
2022-10-13T05:05:46.557Z,43.2
2022-10-13T05:07:02.854Z,43.2
2022-10-13T05:08:19.147Z,43.2
2022-10-13T05:09:34.477Z,43.2
2022-10-13T05:10:49.768Z,43.2
2022-10-13T05:12:06.067Z,43.1
2022-10-13T05:13:21.388Z,43.2
2022-10-13T05:14:36.686Z,43.2
2022-10-13T05:15:52.984Z,43.2
2022-10-13T05:17:09.225Z,43.2
2022-10-13T05:18:25.508Z,43.2
2022-10-13T05:19:41.775Z,43.2
2022-10-13T05:20:58.011Z,42.8
2022-10-13T05:22:14.256Z,42.8
2022-10-13T05:23:30.495Z,43.4
2022-10-13T05:24:46.734Z,43.6
2022-10-13T05:26:02.970Z,44.4
2022-10-13T05:27:19.216Z,44.6
2022-10-13T05:28:35.454Z,45
2022-10-13T05:29:51.688Z,45.3
2022-10-13T05:31:06.952Z,45.7
2022-10-13T05:32:23.189Z,46
2022-10-13T05:33:39.419Z,46.2
2022-10-13T05:34:55.670Z,46.4
2022-10-13T05:36:11.893Z,46.5
2022-10-13T05:37:28.140Z,46.6
2022-10-13T05:38:44.390Z,46.9
2022-10-13T05:39:59.652Z,47.3
2022-10-13T05:41:14.903Z,47.4
2022-10-13T05:42:31.128Z,47.6
2022-10-13T05:43:46.397Z,47.6
2022-10-13T05:45:01.662Z,47.9
2022-10-13T05:46:17.894Z,47.7
2022-10-13T05:47:34.135Z,47.7
2022-10-13T05:48:50.371Z,47.8
2022-10-13T05:50:06.617Z,47.8
2022-10-13T05:51:22.838Z,47.5
2022-10-13T05:52:39.079Z,47.6
2022-10-13T05:53:55.317Z,48
2022-10-13T05:55:11.560Z,48.6
2022-10-13T05:56:27.796Z,49.2
2022-10-13T05:57:44.040Z,50
2022-10-13T05:59:00.287Z,50.5
2022-10-13T06:00:16.517Z,50.9
2022-10-13T06:01:31.770Z,51.2
2022-10-13T06:02:48.013Z,51.4
2022-10-13T06:04:04.249Z,51.7
2022-10-13T06:05:20.503Z,51.9
2022-10-13T06:06:36.732Z,52.3
2022-10-13T06:07:52.973Z,52.4
2022-10-13T06:09:09.215Z,52.8
2022-10-13T06:10:24.470Z,53
2022-10-13T06:11:39.722Z,52.7
2022-10-13T06:12:55.972Z,52.9
2022-10-13T06:14:12.202Z,52.5
2022-10-13T06:15:28.442Z,51.9
2022-10-13T06:16:44.689Z,51.7
2022-10-13T06:18:00.919Z,51.4
2022-10-13T06:19:17.152Z,51.3
2022-10-13T06:20:33.399Z,50.9
2022-10-13T06:21:49.649Z,50.8
2022-10-13T06:23:05.878Z,50.5
2022-10-13T06:24:22.111Z,50.4
2022-10-13T06:25:38.355Z,50.3
2022-10-13T06:26:54.601Z,50.1
2022-10-13T06:28:09.849Z,49.8
2022-10-13T06:29:26.097Z,49.8
2022-10-13T06:30:42.336Z,49.6
2022-10-13T06:31:58.563Z,49.4
2022-10-13T06:33:14.802Z,49
2022-10-13T06:34:31.049Z,48.7
2022-10-13T06:35:47.284Z,48.5
2022-10-13T06:37:02.561Z,48.2
2022-10-13T06:38:17.794Z,48
2022-10-13T06:39:33.058Z,47.9
2022-10-13T06:40:48.319Z,47.7
2022-10-13T06:42:04.558Z,47.5
2022-10-13T06:43:20.789Z,47.4
2022-10-13T06:44:37.039Z,47.3
2022-10-13T06:45:53.270Z,47.2
2022-10-13T06:47:09.516Z,47
2022-10-13T06:48:25.756Z,46.9
2022-10-13T06:49:41.999Z,46.8
2022-10-13T06:50:58.230Z,46.7
2022-10-13T06:52:14.464Z,46.5
2022-10-13T06:53:30.716Z,46.5
2022-10-13T06:54:46.946Z,46.5
2022-10-13T06:56:03.187Z,46.4
2022-10-13T06:57:18.440Z,46.3
2022-10-13T06:58:34.694Z,46.2
2022-10-13T06:59:50.929Z,46.1
2022-10-13T07:01:07.172Z,46.1
2022-10-13T07:02:23.398Z,46
2022-10-13T07:03:39.636Z,45.9
2022-10-13T07:04:55.885Z,45.8
2022-10-13T07:06:11.146Z,45.8
2022-10-13T07:07:26.401Z,45.8
2022-10-13T07:08:41.663Z,45.7
2022-10-13T07:09:56.922Z,45.7
2022-10-13T07:11:13.159Z,45.6
2022-10-13T07:12:29.394Z,45.6
2022-10-13T07:13:45.643Z,45.5
2022-10-13T07:15:01.868Z,45.5
2022-10-13T07:16:18.121Z,45.5
2022-10-13T07:17:34.351Z,45.4
2022-10-13T07:18:49.605Z,45.4
2022-10-13T07:20:05.850Z,45.4
2022-10-13T07:21:22.091Z,45.3
2022-10-13T07:22:38.335Z,45.3
2022-10-13T07:23:54.573Z,45.3
2022-10-13T07:25:10.809Z,45.2
2022-10-13T07:26:27.050Z,45.2
2022-10-13T07:27:43.290Z,45.2
2022-10-13T07:28:59.527Z,45.2
2022-10-13T07:30:15.764Z,45.1
2022-10-13T07:31:32.001Z,45.1
2022-10-13T07:32:48.252Z,45.1
2022-10-13T07:34:04.480Z,45.1
2022-10-13T07:35:19.736Z,45
2022-10-13T07:36:34.995Z,45
2022-10-13T07:37:51.228Z,45
2022-10-13T07:39:07.471Z,45
2022-10-13T07:40:23.708Z,45
2022-10-13T07:41:39.962Z,44.9
2022-10-13T07:42:56.191Z,44.9
2022-10-13T07:44:12.427Z,44.9
2022-10-13T07:45:28.670Z,44.9
2022-10-13T07:46:44.914Z,44.9
2022-10-13T07:48:01.151Z,44.8
2022-10-13T07:49:17.385Z,44.8
2022-10-13T07:50:33.629Z,44.8
2022-10-13T07:51:49.868Z,44.7
2022-10-13T07:53:05.118Z,44.7
2022-10-13T07:54:21.360Z,44.7
2022-10-13T07:55:37.606Z,44.7
2022-10-13T07:56:53.836Z,44.7
2022-10-13T07:58:10.075Z,44.6
2022-10-13T07:59:26.311Z,44.6
2022-10-13T08:00:42.553Z,44.6
2022-10-13T08:01:57.812Z,44.6
2022-10-13T08:03:13.077Z,44.6
2022-10-13T08:04:29.305Z,44.6
2022-10-13T08:05:45.548Z,44.5
2022-10-13T08:07:01.790Z,44.5
2022-10-13T08:08:18.023Z,44.5
2022-10-13T08:09:34.266Z,44.5
2022-10-13T08:10:50.503Z,44.5
2022-10-13T08:12:06.735Z,44.4
2022-10-13T08:13:22.989Z,44.4
2022-10-13T08:14:39.219Z,44.4
2022-10-13T08:15:55.452Z,44.3
2022-10-13T08:17:11.697Z,44.3
2022-10-13T08:18:27.938Z,44.3
2022-10-13T08:19:43.194Z,44.3
2022-10-13T08:20:59.434Z,44.3
2022-10-13T08:22:15.672Z,44.3
2022-10-13T08:23:31.910Z,44.2
2022-10-13T08:24:48.146Z,44.2
2022-10-13T08:26:04.403Z,44.1
2022-10-13T08:27:20.624Z,44.2
2022-10-13T08:28:35.885Z,44.2
2022-10-13T08:29:51.152Z,44.1
2022-10-13T08:31:06.398Z,44
2022-10-13T08:32:21.668Z,44
2022-10-13T08:33:36.932Z,44
2022-10-13T08:34:52.183Z,44
2022-10-13T08:36:08.416Z,44
2022-10-13T08:37:24.668Z,44
2022-10-13T08:38:40.896Z,44
2022-10-13T08:39:57.131Z,44
2022-10-13T08:41:13.370Z,44
2022-10-13T08:42:29.617Z,44
2022-10-13T08:43:45.856Z,44
2022-10-13T08:45:02.091Z,44
2022-10-13T08:46:18.320Z,44
2022-10-13T08:47:34.573Z,44
2022-10-13T08:48:50.806Z,43.9
2022-10-13T08:50:07.055Z,43.9
2022-10-13T08:51:22.308Z,43.9
2022-10-13T08:52:38.540Z,43.9
2022-10-13T08:53:54.774Z,43.9
2022-10-13T08:55:11.025Z,43.9
2022-10-13T08:56:27.257Z,43.8
2022-10-13T08:57:43.498Z,43.7
2022-10-13T08:58:59.729Z,43.7
2022-10-13T09:00:14.990Z,43.7
2022-10-13T09:01:30.250Z,43.7
2022-10-13T09:02:46.502Z,43.6
2022-10-13T09:04:02.737Z,43.6
2022-10-13T09:05:18.964Z,43.6
2022-10-13T09:06:35.200Z,43.6
2022-10-13T09:07:51.437Z,43.5
2022-10-13T09:09:07.686Z,43.5
2022-10-13T09:10:23.926Z,43.5
2022-10-13T09:11:40.155Z,43.6
2022-10-13T09:12:56.394Z,43.5
2022-10-13T09:14:12.650Z,43.5
2022-10-13T09:15:28.870Z,43.5
2022-10-13T09:16:45.110Z,43.5
2022-10-13T09:18:00.377Z,43.5
2022-10-13T09:19:16.610Z,43.5
2022-10-13T09:20:32.853Z,43.5
2022-10-13T09:21:49.100Z,43.5
2022-10-13T09:23:05.323Z,43.5
2022-10-13T09:24:21.569Z,43.5
2022-10-13T09:25:37.799Z,43.5
2022-10-13T09:26:53.070Z,43.5
2022-10-13T09:28:08.319Z,43.5
2022-10-13T09:29:23.579Z,43.5
2022-10-13T09:30:38.841Z,43.5
2022-10-13T09:31:55.075Z,43.5
2022-10-13T09:33:11.319Z,43.5
2022-10-13T09:34:27.569Z,43.5
2022-10-13T09:35:43.794Z,43.5
2022-10-13T09:37:00.039Z,43.5
2022-10-13T09:38:16.264Z,43.5
2022-10-13T09:39:32.517Z,43.5
2022-10-13T09:40:48.756Z,43.5
2022-10-13T09:42:04.990Z,43.5
2022-10-13T09:43:21.231Z,43.5
2022-10-13T09:44:37.458Z,43.5
2022-10-13T09:45:53.705Z,43.5
2022-10-13T09:47:08.960Z,43.5
2022-10-13T09:48:25.198Z,43.5
2022-10-13T09:49:41.434Z,43.5
2022-10-13T09:50:57.669Z,43.5
2022-10-13T09:52:13.927Z,43.5
2022-10-13T09:53:30.162Z,43.5
2022-10-13T09:54:46.399Z,43.6
2022-10-13T09:56:01.654Z,43.6
2022-10-13T09:57:16.912Z,43.9
2022-10-13T09:58:33.147Z,43.8
2022-10-13T09:59:49.385Z,43.7
2022-10-13T10:01:05.632Z,43.7
2022-10-13T10:02:21.864Z,43.7
2022-10-13T10:03:38.105Z,43.8
2022-10-13T10:04:54.345Z,43.8
2022-10-13T10:06:10.585Z,43.8
2022-10-13T10:07:26.829Z,44.3
2022-10-13T10:08:43.061Z,44.1
2022-10-13T10:09:59.300Z,44.1
2022-10-13T10:11:15.540Z,44.1
2022-10-13T10:12:31.773Z,44.1
2022-10-13T10:13:47.050Z,44.1
2022-10-13T10:15:03.264Z,44.1
2022-10-13T10:16:19.521Z,44.2
2022-10-13T10:17:35.748Z,44.2
2022-10-13T10:18:51.989Z,44.2
2022-10-13T10:20:08.229Z,44.2
2022-10-13T10:21:24.460Z,44.2
2022-10-13T10:22:39.720Z,44.2
2022-10-13T10:23:54.986Z,44.2
2022-10-13T10:25:11.231Z,44.2
2022-10-13T10:26:27.462Z,44.2
2022-10-13T10:27:43.699Z,44.2
2022-10-13T10:28:59.949Z,44.2
2022-10-13T10:30:16.177Z,44.2
2022-10-13T10:31:32.422Z,44.2
2022-10-13T10:32:48.662Z,44.2
2022-10-13T10:34:04.891Z,44.3
2022-10-13T10:35:21.130Z,44.3
2022-10-13T10:36:37.368Z,44.2
2022-10-13T10:37:53.618Z,44.2
2022-10-13T10:39:09.849Z,44.8
2022-10-13T10:40:25.102Z,44.6
2022-10-13T10:41:41.341Z,44.5
2022-10-13T10:42:57.591Z,44.5
2022-10-13T10:44:13.824Z,44.5
2022-10-13T10:45:30.053Z,44.6
2022-10-13T10:46:46.293Z,44.6
2022-10-13T10:48:02.534Z,44.6
2022-10-13T10:49:17.810Z,44.6
2022-10-13T10:50:33.055Z,44.6
2022-10-13T10:51:48.312Z,44.6
2022-10-13T10:53:03.570Z,44.6
2022-10-13T10:54:18.841Z,44.7
2022-10-13T10:55:34.096Z,44.7
2022-10-13T10:56:49.362Z,44.6
2022-10-13T10:58:04.610Z,44.7
2022-10-13T10:59:20.852Z,44.6
2022-10-13T11:00:37.082Z,44.6
2022-10-13T11:01:53.326Z,44.8
2022-10-13T11:03:09.562Z,45
2022-10-13T11:04:25.807Z,44.9
2022-10-13T11:05:42.047Z,45
2022-10-13T11:06:58.273Z,45.1
2022-10-13T11:08:14.508Z,45.1
2022-10-13T11:09:30.752Z,45.1
2022-10-13T11:10:47.002Z,45.1
2022-10-13T11:12:03.230Z,45.2
2022-10-13T11:13:19.470Z,45.2
2022-10-13T11:14:34.728Z,45.2
2022-10-13T11:15:50.969Z,45.1
2022-10-13T11:17:07.208Z,45.1
2022-10-13T11:18:23.445Z,45
2022-10-13T11:19:39.678Z,44.7
2022-10-13T11:20:55.919Z,44.6
2022-10-13T11:22:12.158Z,44.8
2022-10-13T11:23:27.421Z,44.8
2022-10-13T11:24:42.673Z,44.8
2022-10-13T11:25:58.916Z,44.7
2022-10-13T11:27:15.150Z,44.7
2022-10-13T11:28:31.400Z,44.5
2022-10-13T11:29:47.626Z,44.3
2022-10-13T11:31:03.867Z,44.6
2022-10-13T11:32:20.122Z,44.8
2022-10-13T11:33:35.365Z,44.6
2022-10-13T11:34:51.606Z,44.8
2022-10-13T11:36:07.857Z,45
2022-10-13T11:37:24.000Z,45.2
2022-10-13T11:38:40.323Z,45.3
2022-10-13T11:39:56.561Z,45.3
2022-10-13T11:41:12.809Z,45.4
2022-10-13T11:42:29.049Z,45.3
2022-10-13T11:43:45.293Z,45.3
2022-10-13T11:45:01.516Z,45.3
2022-10-13T11:46:17.758Z,45.3
2022-10-13T11:47:34.001Z,45.3
2022-10-13T11:48:50.232Z,45.3
2022-10-13T11:50:05.491Z,45.3
2022-10-13T11:51:20.750Z,45.3
2022-10-13T11:52:36.996Z,45.3
2022-10-13T11:53:53.234Z,45.3
2022-10-13T11:55:09.477Z,45.2
2022-10-13T11:56:25.708Z,45.2
2022-10-13T11:57:41.962Z,45.2
2022-10-13T11:58:58.184Z,45
2022-10-13T12:00:14.432Z,45
2022-10-13T12:01:30.669Z,44.9
2022-10-13T12:02:46.901Z,44.9
2022-10-13T12:04:03.138Z,44.9
2022-10-13T12:05:19.378Z,44.9
2022-10-13T12:06:35.624Z,44.9
2022-10-13T12:07:50.873Z,44.9
2022-10-13T12:09:07.114Z,44.9
2022-10-13T12:10:23.349Z,44.9
2022-10-13T12:11:39.600Z,44.9
2022-10-13T12:12:55.828Z,44.9
2022-10-13T12:14:12.077Z,44.8
2022-10-13T12:15:28.320Z,44.8
2022-10-13T12:16:43.571Z,44.8
2022-10-13T12:17:58.829Z,44.8
2022-10-13T12:19:15.064Z,44.8
2022-10-13T12:20:31.309Z,44.8
2022-10-13T12:21:47.538Z,44.9
2022-10-13T12:23:03.777Z,44.9
2022-10-13T12:24:20.019Z,44.9
2022-10-13T12:25:36.270Z,44.9
2022-10-13T12:26:52.512Z,44.9
2022-10-13T12:28:08.748Z,44.9
2022-10-13T12:29:24.980Z,44.9
2022-10-13T12:30:41.219Z,44.9
2022-10-13T12:31:57.445Z,44.9
2022-10-13T12:33:13.685Z,44.9
2022-10-13T12:34:28.943Z,44.9
2022-10-13T12:35:45.185Z,44.9
2022-10-13T12:37:01.425Z,44.9
2022-10-13T12:38:17.668Z,44.9
2022-10-13T12:39:33.913Z,44.9
2022-10-13T12:40:50.135Z,44.9
2022-10-13T12:42:06.373Z,44.9
2022-10-13T12:43:21.636Z,44.8
2022-10-13T12:44:36.902Z,44.8
2022-10-13T12:45:53.133Z,44.8
2022-10-13T12:47:09.375Z,44.7
2022-10-13T12:48:25.616Z,44.6
2022-10-13T12:49:41.849Z,44.5
2022-10-13T12:50:58.085Z,44.5
2022-10-13T12:52:14.339Z,44.3
2022-10-13T12:53:30.576Z,44.1
2022-10-13T12:54:46.809Z,43.9
2022-10-13T12:56:03.048Z,43.8
2022-10-13T12:57:19.286Z,43.9
2022-10-13T12:58:35.518Z,43.8
2022-10-13T12:59:51.761Z,43.5
2022-10-13T13:01:07.015Z,43.5
2022-10-13T13:02:23.259Z,43.3
2022-10-13T13:03:39.495Z,43.1
2022-10-13T13:04:55.739Z,43.1
2022-10-13T13:06:11.966Z,43.2
2022-10-13T13:07:28.204Z,43.1
2022-10-13T13:08:44.447Z,42.9
2022-10-13T13:10:00.689Z,42.9
2022-10-13T13:11:16.926Z,42.9
2022-10-13T13:12:33.162Z,43
2022-10-13T13:13:49.409Z,43
2022-10-13T13:15:05.638Z,42.9
2022-10-13T13:16:21.887Z,42.9
2022-10-13T13:17:37.144Z,42.9
2022-10-13T13:18:53.374Z,42.9
2022-10-13T13:20:09.612Z,42.9
2022-10-13T13:21:25.849Z,42.9
2022-10-13T13:22:42.088Z,43
2022-10-13T13:23:58.327Z,43
2022-10-13T13:25:14.576Z,43
2022-10-13T13:26:30.810Z,43
2022-10-13T13:27:47.052Z,43
2022-10-13T13:29:03.277Z,43
2022-10-13T13:30:19.529Z,43
2022-10-13T13:31:35.757Z,43
2022-10-13T13:32:51.994Z,43
2022-10-13T13:34:07.268Z,43.5
2022-10-13T13:35:23.490Z,43.5
2022-10-13T13:36:39.729Z,43.6
2022-10-13T13:37:55.980Z,43.9
2022-10-13T13:39:12.225Z,43.6
2022-10-13T13:40:28.455Z,43.6
2022-10-13T13:41:44.697Z,43.6
2022-10-13T13:43:00.925Z,43.6
2022-10-13T13:44:17.171Z,43.6
2022-10-13T13:45:33.412Z,43.8
2022-10-13T13:46:49.642Z,43.8
2022-10-13T13:48:05.878Z,43.6
2022-10-13T13:49:22.115Z,44.1
2022-10-13T13:50:37.379Z,44.4
2022-10-13T13:51:53.623Z,44.1
2022-10-13T13:53:09.851Z,44
2022-10-13T13:54:26.089Z,43.8
2022-10-13T13:55:42.330Z,44
2022-10-13T13:56:58.576Z,43.9
2022-10-13T13:58:14.814Z,44.1
2022-10-13T13:59:31.046Z,44.4
2022-10-13T14:00:47.280Z,44.7
2022-10-13T14:02:03.520Z,45
2022-10-13T14:03:19.776Z,44.7
2022-10-13T14:04:35.996Z,44.7
2022-10-13T14:05:52.241Z,44.8
2022-10-13T14:07:07.496Z,45.2
2022-10-13T14:08:23.732Z,44.8
2022-10-13T14:09:39.975Z,44.7
2022-10-13T14:10:56.215Z,44.9
2022-10-13T14:12:12.465Z,44.8
2022-10-13T14:13:28.701Z,44.6
2022-10-13T14:14:44.926Z,44.7
2022-10-13T14:16:01.167Z,44.7
2022-10-13T14:17:17.402Z,44.8
2022-10-13T14:18:33.654Z,44.8
2022-10-13T14:19:49.888Z,44.8
2022-10-13T14:21:06.126Z,44.9
2022-10-13T14:22:22.358Z,44.8
2022-10-13T14:23:37.618Z,44.9
2022-10-13T14:24:53.864Z,44.8
2022-10-13T14:26:10.104Z,45.6
2022-10-13T14:27:26.330Z,45.6
2022-10-13T14:28:42.574Z,45.5
2022-10-13T14:29:58.820Z,45.8
2022-10-13T14:31:15.054Z,45.8
2022-10-13T14:32:31.289Z,45.8
2022-10-13T14:33:47.537Z,45.8
2022-10-13T14:35:03.769Z,46.1
2022-10-13T14:36:20.005Z,46.1
2022-10-13T14:37:36.248Z,46
2022-10-13T14:38:52.477Z,46
2022-10-13T14:40:07.738Z,46.2
2022-10-13T14:41:23.982Z,46.3
2022-10-13T14:42:40.219Z,45.8
2022-10-13T14:43:56.455Z,45.8
2022-10-13T14:45:12.687Z,45.7
2022-10-13T14:46:28.924Z,45.7
2022-10-13T14:47:45.166Z,45.8
2022-10-13T14:49:01.415Z,45.8
2022-10-13T14:50:17.642Z,45.8
2022-10-13T14:51:33.886Z,45.7
2022-10-13T14:52:50.118Z,45.7
2022-10-13T14:54:06.362Z,45.7
2022-10-13T14:55:22.598Z,45.7
2022-10-13T14:56:37.857Z,45.7
2022-10-13T14:57:54.107Z,45.7
2022-10-13T14:59:10.330Z,45.6
2022-10-13T15:00:26.582Z,45.7
2022-10-13T15:01:42.811Z,45.5
2022-10-13T15:02:59.052Z,45.7
2022-10-13T15:04:15.289Z,45.5
2022-10-13T15:05:31.538Z,45.6
2022-10-13T15:06:47.766Z,45.6
2022-10-13T15:08:03.998Z,45.6
2022-10-13T15:09:20.248Z,45.6
2022-10-13T15:10:36.482Z,45.7
2022-10-13T15:11:52.733Z,46.1
2022-10-13T15:13:07.980Z,46
2022-10-13T15:14:24.209Z,45.8
2022-10-13T15:15:40.452Z,46
2022-10-13T15:16:56.710Z,45.9
2022-10-13T15:18:12.927Z,46
2022-10-13T15:19:29.174Z,46.1
2022-10-13T15:20:45.408Z,46.2
2022-10-13T15:22:01.650Z,45.9
2022-10-13T15:23:17.886Z,46.2
2022-10-13T15:24:34.125Z,46
2022-10-13T15:25:50.362Z,46
2022-10-13T15:27:06.598Z,46.1
2022-10-13T15:28:22.839Z,46.1
2022-10-13T15:29:38.099Z,46.2
2022-10-13T15:30:54.335Z,46.1
2022-10-13T15:32:10.589Z,46.1
2022-10-13T15:33:26.817Z,46.2
2022-10-13T15:34:43.062Z,46.1
2022-10-13T15:35:59.287Z,46.2
2022-10-13T15:37:15.539Z,46.2
2022-10-13T15:38:31.763Z,46.3
2022-10-13T15:39:48.001Z,46.3
2022-10-13T15:41:04.248Z,46.3
2022-10-13T15:42:20.481Z,46.3
2022-10-13T15:43:36.732Z,46.2
2022-10-13T15:44:52.969Z,46.2
2022-10-13T15:46:08.221Z,46.2
2022-10-13T15:47:24.465Z,46.3
2022-10-13T15:48:39.732Z,46.2
2022-10-13T15:49:55.968Z,46.2
2022-10-13T15:51:12.193Z,46.3
2022-10-13T15:52:28.438Z,46.3
2022-10-13T15:53:44.684Z,46.3
2022-10-13T15:55:00.916Z,46.3
2022-10-13T15:56:17.164Z,46.3
2022-10-13T15:57:33.393Z,46.3
2022-10-13T15:58:49.637Z,46.3
2022-10-13T16:00:05.867Z,46.3
2022-10-13T16:01:22.108Z,46.4
2022-10-13T16:02:38.352Z,46.4
2022-10-13T16:03:54.583Z,46.4
2022-10-13T16:05:09.840Z,46.4
2022-10-13T16:06:26.075Z,46.4
2022-10-13T16:07:42.323Z,46.4
2022-10-13T16:08:58.556Z,46.4
2022-10-13T16:10:14.799Z,46.3
2022-10-13T16:11:31.040Z,46.2
2022-10-13T16:12:47.272Z,46.2
2022-10-13T16:14:03.515Z,46.1
2022-10-13T16:15:19.764Z,46.2
2022-10-13T16:16:35.996Z,46.2
2022-10-13T16:17:52.229Z,46.1
2022-10-13T16:19:08.469Z,46.2
2022-10-13T16:20:24.704Z,46.2
2022-10-13T16:21:39.953Z,46
2022-10-13T16:22:56.210Z,46.1
2022-10-13T16:24:12.432Z,46.4
2022-10-13T16:25:28.685Z,46
2022-10-13T16:26:44.921Z,46.2
2022-10-13T16:28:01.155Z,46
2022-10-13T16:29:17.454Z,46
2022-10-13T16:30:33.741Z,46
2022-10-13T16:31:50.039Z,46.1
2022-10-13T16:33:06.328Z,46.1
2022-10-13T16:34:22.617Z,46.1
2022-10-13T16:35:38.906Z,46
2022-10-13T16:36:55.206Z,46.1
2022-10-13T16:38:10.524Z,46.2
2022-10-13T16:39:26.807Z,46
2022-10-13T16:40:43.107Z,46.1
2022-10-13T16:41:59.392Z,46.1
2022-10-13T16:43:15.685Z,46
2022-10-13T16:44:31.971Z,45.9
2022-10-13T16:45:48.274Z,46
2022-10-13T16:47:04.562Z,46
2022-10-13T16:48:20.856Z,46
2022-10-13T16:49:37.148Z,46.1
2022-10-13T16:50:53.437Z,46
2022-10-13T16:52:09.751Z,46
2022-10-13T16:53:26.032Z,46
2022-10-13T16:54:41.341Z,46
2022-10-13T16:55:57.625Z,46.1
2022-10-13T16:57:13.928Z,45.9
2022-10-13T16:58:30.213Z,46
2022-10-13T16:59:46.515Z,46.1
2022-10-13T17:01:02.808Z,46
2022-10-13T17:02:19.088Z,45.9
2022-10-13T17:03:35.381Z,46.1
2022-10-13T17:04:51.000Z,46
2022-10-13T17:06:07.969Z,46
2022-10-13T17:07:24.281Z,46
2022-10-13T17:08:40.556Z,46
2022-10-13T17:09:56.853Z,46
2022-10-13T17:11:12.171Z,46
2022-10-13T17:12:28.452Z,46.2
2022-10-13T17:13:44.747Z,46.2
2022-10-13T17:15:01.044Z,46
2022-10-13T17:16:17.340Z,46.1
2022-10-13T17:17:33.621Z,46.1
2022-10-13T17:18:49.917Z,46.2
2022-10-13T17:20:06.210Z,46
2022-10-13T17:21:22.507Z,46
2022-10-13T17:22:38.787Z,46
2022-10-13T17:23:55.083Z,46
2022-10-13T17:25:11.386Z,46
2022-10-13T17:26:27.673Z,46
2022-10-13T17:27:42.000Z,46
2022-10-13T17:28:59.272Z,46
2022-10-13T17:30:15.583Z,46
2022-10-13T17:31:31.862Z,46.1
2022-10-13T17:32:48.163Z,46